Time;durP1;ratioP1;P1;durP2;ratioP2;P2;SDS_P1;SDS_P2;PMS_P1;PMS_P2;Temp;Humidity;BMP_temperature;BMP_pressure;BME280_temperature;BME280_humidity;BME280_pressure;Samples;Min_cycle;Max_cycle;Signal;HPM_P1;HPM_P2
2021/12/09 00:00:11;;;;;;;65.45;33.25;;;;;;;-1.16;94.07;99805.44;5029357;28;20049;-60
2021/12/09 00:02:39;;;;;;;68.25;34.30;;;;;;;-1.08;94.01;99816.44;5032153;28;20045;-60
2021/12/09 00:05:10;;;;;;;73.15;34.47;;;;;;;-1.07;93.33;99815.56;5028110;28;20058;-59
2021/12/09 00:07:37;;;;;;;69.68;34.78;;;;;;;-1.12;93.43;99813.97;5032249;28;20128;-57
2021/12/09 00:10:08;;;;;;;68.82;34.33;;;;;;;-1.13;93.60;99799.34;5030971;28;20068;-59
2021/12/09 00:12:35;;;;;;;75.25;35.00;;;;;;;-1.18;94.02;99799.44;5038738;28;20045;-58
2021/12/09 00:15:03;;;;;;;73.25;36.30;;;;;;;-1.19;94.46;99790.00;5014016;28;20053;-59
2021/12/09 00:17:31;;;;;;;67.25;33.55;;;;;;;-1.22;94.95;99787.50;5036370;28;20052;-60
2021/12/09 00:19:58;;;;;;;75.88;36.60;;;;;;;-1.27;94.80;99776.44;5032342;28;20402;-57
2021/12/09 00:22:27;;;;;;;72.97;35.05;;;;;;;-1.26;94.45;99775.56;5034720;28;20041;-59
2021/12/09 00:24:54;;;;;;;79.38;35.70;;;;;;;-1.19;94.37;99781.44;5030935;28;20056;-59
2021/12/09 00:27:23;;;;;;;80.07;38.08;;;;;;;-1.20;94.56;99777.16;5032517;28;20648;-59
2021/12/09 00:29:50;;;;;;;80.15;38.03;;;;;;;-1.29;94.76;99778.22;5031483;28;20385;-59
2021/12/09 00:32:18;;;;;;;79.10;36.25;;;;;;;-1.32;94.73;99770.53;5034292;28;20057;-59
2021/12/09 00:34:48;;;;;;;72.53;36.38;;;;;;;-1.33;95.26;99774.00;5028870;28;20053;-57
2021/12/09 00:37:25;;;;;;;89.20;39.78;;;;;;;-1.37;95.39;99778.41;5027926;28;20064;-60
2021/12/09 00:39:53;;;;;;;77.50;38.13;;;;;;;-1.32;95.11;99775.69;5034192;28;20053;-61
2021/12/09 00:42:22;;;;;;;83.88;39.58;;;;;;;-1.31;94.76;99774.81;5037462;28;20166;-59
2021/12/09 00:44:50;;;;;;;78.20;36.47;;;;;;;-1.33;95.02;99777.44;5032300;28;20067;-60
2021/12/09 00:47:17;;;;;;;81.57;38.22;;;;;;;-1.31;95.05;99783.44;5032496;28;20469;-62
2021/12/09 00:49:45;;;;;;;80.38;38.70;;;;;;;-1.26;94.89;99765.25;5027491;28;20045;-60
2021/12/09 00:52:13;;;;;;;77.75;38.70;;;;;;;-1.23;93.78;99759.13;5035250;28;20049;-57
2021/12/09 00:54:42;;;;;;;78.50;37.50;;;;;;;-1.29;94.27;99781.66;5028809;28;20045;-61
2021/12/09 00:57:10;;;;;;;82.15;38.67;;;;;;;-1.32;94.36;99770.53;5031213;28;20061;-57
2021/12/09 00:59:37;;;;;;;76.82;37.30;;;;;;;-1.32;94.66;99758.47;5028519;28;20053;-60
2021/12/09 01:02:04;;;;;;;84.18;38.50;;;;;;;-1.35;94.43;99766.31;5032139;28;20061;-58
2021/12/09 01:04:32;;;;;;;82.22;38.47;;;;;;;-1.34;94.71;99762.00;5025378;28;20139;-58
2021/12/09 01:06:59;;;;;;;77.55;38.67;;;;;;;-1.32;94.95;99770.53;5028887;28;20160;-58
2021/12/09 01:09:26;;;;;;;78.90;38.22;;;;;;;-1.31;94.72;99779.97;5029152;28;20389;-61
2021/12/09 01:11:53;;;;;;;78.72;38.13;;;;;;;-1.25;94.39;99779.00;5029947;28;20051;-59
2021/12/09 01:14:21;;;;;;;77.88;39.08;;;;;;;-1.22;94.01;99768.56;5015369;28;20510;-60
2021/12/09 01:16:48;;;;;;;74.22;37.08;;;;;;;-1.16;93.46;99782.19;5032132;28;20049;-60
2021/12/09 01:19:15;;;;;;;83.78;38.58;;;;;;;-1.24;93.39;99778.09;5028518;28;20526;-60
2021/12/09 01:21:42;;;;;;;78.05;37.25;;;;;;;-1.28;93.83;99775.59;5034946;28;20045;-58
2021/12/09 01:24:09;;;;;;;78.80;37.10;;;;;;;-1.33;94.61;99785.19;5031587;28;20078;-61
2021/12/09 01:26:37;;;;;;;76.05;39.20;;;;;;;-1.33;94.59;99785.19;5031875;28;20063;-61
2021/12/09 01:29:13;;;;;;;80.45;39.75;;;;;;;-1.36;95.15;99786.97;5029722;28;20049;-59
2021/12/09 01:31:41;;;;;;;82.03;40.13;;;;;;;-1.31;94.96;99785.13;5031280;28;20055;-61
2021/12/09 01:34:09;;;;;;;79.15;40.17;;;;;;;-1.20;94.19;99803.81;5031077;28;20060;-60
2021/12/09 01:36:36;;;;;;;75.70;38.15;;;;;;;-1.28;94.10;99795.41;5032933;28;20140;-60
2021/12/09 01:39:05;;;;;;;84.00;40.10;;;;;;;-1.33;94.49;99794.66;5030525;28;20136;-58
2021/12/09 01:41:32;;;;;;;88.72;40.95;;;;;;;-1.31;94.40;99804.09;5034705;28;20095;-59
2021/12/09 01:44:00;;;;;;;80.45;39.15;;;;;;;-1.29;94.86;99810.06;5027586;28;20044;-58
2021/12/09 01:46:27;;;;;;;87.82;41.20;;;;;;;-1.27;94.53;99812.59;5034427;28;20054;-60
2021/12/09 01:48:54;;;;;;;83.60;38.25;;;;;;;-1.34;94.45;99813.63;5030888;28;20709;-62
2021/12/09 01:51:22;;;;;;;75.72;37.15;;;;;;;-1.36;94.81;99800.75;4988088;28;20124;-58
2021/12/09 01:53:52;;;;;;;86.57;42.10;;;;;;;-1.30;94.65;99804.94;5030238;28;20052;-57
2021/12/09 01:56:24;;;;;;;80.03;38.58;;;;;;;-1.26;94.41;99806.56;5035677;28;20061;-62
2021/12/09 01:58:54;;;;;;;84.43;40.30;;;;;;;-1.38;94.39;99799.09;5014969;28;21418;-59
2021/12/09 02:01:21;;;;;;;82.50;38.65;;;;;;;-1.41;94.78;99806.91;5033453;28;20521;-62
2021/12/09 02:03:50;;;;;;;84.85;40.15;;;;;;;-1.48;95.12;99798.47;5025506;28;20049;-57
2021/12/09 02:06:18;;;;;;;84.07;40.20;;;;;;;-1.47;95.21;99792.41;5033055;28;20046;-58
2021/12/09 02:08:45;;;;;;;84.25;39.65;;;;;;;-1.46;95.37;99796.69;5026758;28;20049;-60
2021/12/09 02:11:13;;;;;;;82.30;41.03;;;;;;;-1.46;95.54;99790.69;5031475;28;20662;-61
2021/12/09 02:13:40;;;;;;;85.30;40.95;;;;;;;-1.41;95.59;99794.84;5031981;28;20052;-61
2021/12/09 02:16:08;;;;;;;82.28;38.63;;;;;;;-1.39;95.50;99787.91;5040164;28;20063;-56
2021/12/09 02:18:36;;;;;;;88.38;40.53;;;;;;;-1.34;95.56;99787.81;5035367;28;20053;-58
2021/12/09 02:21:13;;;;;;;87.93;40.45;;;;;;;-1.29;94.76;99784.22;5031237;28;20052;-59
2021/12/09 02:23:46;;;;;;;78.90;38.85;;;;;;;-1.28;94.39;99775.59;5022094;28;20045;-58
2021/12/09 02:26:15;;;;;;;83.63;40.88;;;;;;;-1.32;94.26;99780.88;5031420;28;20054;-59
2021/12/09 02:28:43;;;;;;;78.82;40.03;;;;;;;-1.34;94.24;99775.75;5033859;28;20154;-59
2021/12/09 02:31:10;;;;;;;86.85;39.90;;;;;;;-1.30;93.83;99777.38;5032575;28;20502;-61
2021/12/09 02:33:37;;;;;;;83.00;40.10;;;;;;;-1.31;94.37;99777.41;5032257;28;20049;-60
2021/12/09 02:36:04;;;;;;;82.22;40.95;;;;;;;-1.33;94.69;99785.19;5034115;28;20049;-60
2021/12/09 02:38:32;;;;;;;81.60;40.53;;;;;;;-1.35;94.53;99783.50;5034648;28;20230;-60
2021/12/09 02:41:02;;;;;;;91.50;43.13;;;;;;;-1.41;95.19;99788.84;5026344;28;20564;-56
2021/12/09 02:43:29;;;;;;;85.68;40.00;;;;;;;-1.46;95.32;99786.34;5032640;28;20046;-58
2021/12/09 02:45:57;;;;;;;83.63;39.10;;;;;;;-1.49;95.45;99780.41;5033167;28;20086;-57
2021/12/09 02:48:25;;;;;;;84.82;41.15;;;;;;;-1.51;95.72;99785.63;5033956;28;20144;-61
2021/12/09 02:50:52;;;;;;;91.63;40.70;;;;;;;-1.51;95.80;99795.09;5033561;28;20081;-58
2021/12/09 02:53:21;;;;;;;86.93;40.90;;;;;;;-1.47;95.70;99796.72;5028552;28;20157;-61
2021/12/09 02:55:48;;;;;;;89.65;40.03;;;;;;;-1.46;95.78;99801.84;5036630;28;20432;-59
2021/12/09 02:58:15;;;;;;;79.90;41.45;;;;;;;-1.40;95.32;99793.09;5032176;28;20040;-59
2021/12/09 03:00:57;;;;;;;83.53;39.58;;;;;;;-1.42;95.28;99793.16;5034558;28;20137;-60
2021/12/09 03:03:24;;;;;;;84.57;41.45;;;;;;;-1.46;95.23;99788.09;5031464;28;20053;-61
2021/12/09 03:05:53;;;;;;;83.25;40.33;;;;;;;-1.46;95.43;99783.78;5033659;28;20124;-58
2021/12/09 03:08:32;;;;;;;85.88;42.05;;;;;;;-1.43;95.64;99783.72;5033959;28;20051;-57
2021/12/09 03:11:08;;;;;;;91.90;42.92;;;;;;;-1.41;95.28;99781.09;5032536;28;20389;-61
2021/12/09 03:13:37;;;;;;;91.40;42.58;;;;;;;-1.42;95.18;99781.97;5034730;28;20064;-58
2021/12/09 03:16:04;;;;;;;79.35;39.80;;;;;;;-1.42;95.43;99780.25;5034541;28;20123;-63
2021/12/09 03:18:42;;;;;;;84.85;40.38;;;;;;;-1.46;95.22;99777.78;5034284;28;20046;-59
2021/12/09 03:21:22;;;;;;;83.95;40.90;;;;;;;-1.45;95.39;99779.47;5031271;28;20049;-60
2021/12/09 03:23:50;;;;;;;86.70;42.78;;;;;;;-1.46;95.08;99775.19;5036763;28;20053;-60
2021/12/09 03:26:22;;;;;;;86.80;41.38;;;;;;;-1.39;95.28;99777.59;5036585;28;20045;-59
2021/12/09 03:28:50;;;;;;;79.93;40.40;;;;;;;-1.39;95.05;99774.16;5030198;28;20081;-61
2021/12/09 03:31:17;;;;;;;83.03;40.83;;;;;;;-1.33;94.47;99779.19;5027725;28;20167;-60
2021/12/09 03:33:44;;;;;;;86.97;41.13;;;;;;;-1.38;94.96;99773.28;5033160;28;20073;-60
2021/12/09 03:36:11;;;;;;;91.47;42.90;;;;;;;-1.44;95.08;99781.16;5032794;28;20050;-58
2021/12/09 03:38:39;;;;;;;81.80;40.03;;;;;;;-1.39;94.95;99782.75;5030428;28;20132;-60
2021/12/09 03:41:07;;;;;;;83.95;41.35;;;;;;;-1.50;95.20;99769.25;5029258;28;20060;-61
2021/12/09 03:43:35;;;;;;;83.28;40.05;;;;;;;-1.53;95.49;99777.06;5030592;28;20053;-61
2021/12/09 03:46:02;;;;;;;83.60;41.30;;;;;;;-1.50;95.31;99776.97;5027670;28;20063;-60
2021/12/09 03:48:30;;;;;;;84.88;42.03;;;;;;;-1.50;95.40;99781.31;5031534;28;20080;-58
2021/12/09 03:50:57;;;;;;;86.50;41.03;;;;;;;-1.48;95.59;99777.81;5034805;28;20049;-59
2021/12/09 03:53:25;;;;;;;86.25;40.47;;;;;;;-1.45;95.31;99771.72;5036213;28;20120;-58
2021/12/09 03:55:52;;;;;;;83.05;42.05;;;;;;;-1.54;95.47;99778.78;5012273;28;20074;-56
2021/12/09 03:58:19;;;;;;;82.78;41.08;;;;;;;-1.55;95.86;99778.81;5027223;28;20199;-59
2021/12/09 04:00:47;;;;;;;84.20;40.25;;;;;;;-1.56;95.77;99777.13;5032399;28;20482;-61
2021/12/09 04:03:16;;;;;;;84.55;42.83;;;;;;;-1.57;96.06;99778.88;5029214;28;20081;-61
2021/12/09 04:05:47;;;;;;;88.65;42.33;;;;;;;-1.55;96.14;99779.66;5016202;28;20127;-59
2021/12/09 04:08:15;;;;;;;86.78;41.20;;;;;;;-1.47;95.96;99781.25;5032670;28;20049;-60
2021/12/09 04:10:43;;;;;;;85.03;43.05;;;;;;;-1.40;95.57;99775.88;5026995;28;20077;-60
2021/12/09 04:13:10;;;;;;;81.35;41.60;;;;;;;-1.45;95.23;99775.13;5027112;28;20145;-57
2021/12/09 04:15:37;;;;;;;90.97;42.80;;;;;;;-1.44;95.51;99771.69;5028125;28;20048;-59
2021/12/09 04:18:05;;;;;;;82.28;40.05;;;;;;;-1.43;94.99;99780.28;5032391;28;20772;-59
2021/12/09 04:20:32;;;;;;;85.10;41.53;;;;;;;-1.49;95.40;99783.84;5028968;28;20133;-58
2021/12/09 04:23:00;;;;;;;78.93;39.15;;;;;;;-1.48;95.67;99777.81;5032361;28;20050;-61
2021/12/09 04:25:27;;;;;;;87.53;41.85;;;;;;;-1.44;95.37;99779.44;5010281;28;20128;-58
2021/12/09 04:27:55;;;;;;;85.25;41.90;;;;;;;-1.49;95.40;99783.00;5033053;28;20115;-59
2021/12/09 04:30:24;;;;;;;82.50;41.38;;;;;;;-1.46;95.59;99786.34;5029026;28;20127;-61
2021/12/09 04:32:53;;;;;;;79.93;40.50;;;;;;;-1.51;95.27;99783.03;5028355;28;20081;-60
2021/12/09 04:35:21;;;;;;;85.18;41.63;;;;;;;-1.54;95.71;99783.09;5028204;28;20049;-66
2021/12/09 04:37:48;;;;;;;83.75;40.95;;;;;;;-1.59;96.38;99790.94;5029454;28;20136;-61
2021/12/09 04:40:17;;;;;;;87.75;41.95;;;;;;;-1.49;96.09;99788.16;5030216;28;20057;-59
2021/12/09 04:42:44;;;;;;;80.63;40.55;;;;;;;-1.55;95.90;99779.66;5029330;28;20054;-60
2021/12/09 04:45:11;;;;;;;90.43;42.55;;;;;;;-1.48;96.37;99780.41;5029401;28;20052;-60
2021/12/09 04:47:40;;;;;;;91.35;42.25;;;;;;;-1.47;96.22;99788.97;5032543;28;20140;-59
2021/12/09 04:50:09;;;;;;;82.13;41.13;;;;;;;-1.45;96.10;99794.94;5032956;28;20063;-58
2021/12/09 04:52:36;;;;;;;79.45;39.97;;;;;;;-1.42;95.96;99802.63;5026203;28;20063;-59
2021/12/09 04:55:05;;;;;;;88.35;40.72;;;;;;;-1.29;95.99;99804.03;5031433;28;20049;-62
2021/12/09 04:57:33;;;;;;;78.00;39.85;;;;;;;-1.37;95.72;99804.22;5030709;28;20625;-59
2021/12/09 05:00:01;;;;;;;87.13;43.03;;;;;;;-1.31;95.31;99804.09;5026470;28;20072;-60
2021/12/09 05:02:39;;;;;;;87.72;41.45;;;;;;;-1.34;95.61;99804.16;5028981;28;20057;-59
2021/12/09 05:05:07;;;;;;;87.32;41.53;;;;;;;-1.38;95.66;99812.84;5022101;28;20129;-59
2021/12/09 05:07:35;;;;;;;77.55;39.80;;;;;;;-1.37;95.78;99806.78;5024213;28;20651;-62
2021/12/09 05:10:03;;;;;;;87.15;41.80;;;;;;;-1.34;95.70;99818.78;5022555;28;20128;-60
2021/12/09 05:12:31;;;;;;;87.78;42.38;;;;;;;-1.28;94.87;99823.81;5030784;28;20127;-66
2021/12/09 05:14:58;;;;;;;77.63;39.72;;;;;;;-1.21;94.76;99827.97;5018581;28;20060;-60
2021/12/09 05:17:25;;;;;;;80.40;40.88;;;;;;;-1.27;95.03;99841.00;5022882;28;20594;-59
2021/12/09 05:19:53;;;;;;;78.93;38.78;;;;;;;-1.24;94.71;99842.66;5022017;28;20482;-60
2021/12/09 05:22:20;;;;;;;79.13;39.78;;;;;;;-1.27;95.03;99848.72;5028186;28;20063;-58
2021/12/09 05:24:49;;;;;;;82.18;40.35;;;;;;;-1.17;94.50;99845.06;5024517;28;20049;-62
2021/12/09 05:27:17;;;;;;;83.03;40.40;;;;;;;-1.20;94.47;99828.81;5017705;28;20065;-62
2021/12/09 05:29:52;;;;;;;79.60;40.33;;;;;;;-1.32;94.46;99817.84;5030334;28;20061;-61
2021/12/09 05:32:20;;;;;;;77.30;39.33;;;;;;;-1.31;94.97;99831.63;5022945;28;20053;-59
2021/12/09 05:34:49;;;;;;;81.00;38.97;;;;;;;-1.29;95.43;99829.88;5027087;28;20049;-59
2021/12/09 05:37:21;;;;;;;89.90;41.25;;;;;;;-1.26;95.15;99840.13;5028623;28;20165;-66
2021/12/09 05:39:49;;;;;;;79.57;37.72;;;;;;;-1.23;95.15;99839.19;5027533;28;20132;-60
2021/12/09 05:42:22;;;;;;;82.25;39.60;;;;;;;-1.27;95.33;99831.50;5027151;28;20083;-61
2021/12/09 05:44:49;;;;;;;79.70;38.92;;;;;;;-1.29;95.71;99835.88;5019019;28;20057;-60
2021/12/09 05:47:16;;;;;;;85.53;37.67;;;;;;;-1.33;95.97;99836.81;5028206;28;20136;-58
2021/12/09 05:49:46;;;;;;;85.40;40.25;;;;;;;-1.35;96.70;99837.72;5027682;28;20128;-60
2021/12/09 05:52:14;;;;;;;77.55;38.75;;;;;;;-1.30;96.91;99849.69;5026057;28;20046;-60
2021/12/09 05:54:41;;;;;;;83.85;40.97;;;;;;;-1.37;97.01;99840.34;5024154;28;20056;-59
2021/12/09 05:57:08;;;;;;;91.15;40.97;;;;;;;-1.30;97.68;99844.50;5028655;28;20132;-59
2021/12/09 05:59:40;;;;;;;89.70;42.42;;;;;;;-1.03;100.00;99837.84;5019908;28;20049;-56
2021/12/09 06:02:09;;;;;;;95.07;42.10;;;;;;;-0.93;100.00;99827.28;5023331;28;20144;-62
2021/12/09 06:04:37;;;;;;;84.88;41.33;;;;;;;-0.97;100.00;99820.50;5013830;28;20057;-61
2021/12/09 06:07:05;;;;;;;86.47;41.60;;;;;;;-0.95;100.00;99818.69;5029329;28;20145;-60
2021/12/09 06:09:32;;;;;;;82.65;39.72;;;;;;;-1.02;100.00;99815.44;5019222;28;20061;-60
2021/12/09 06:11:59;;;;;;;88.90;41.10;;;;;;;-0.98;100.00;99829.13;5022999;28;20136;-61
2021/12/09 06:14:27;;;;;;;84.78;40.10;;;;;;;-0.92;99.24;99816.91;5012301;28;20565;-60
2021/12/09 06:16:54;;;;;;;84.03;40.90;;;;;;;-0.88;98.59;99825.44;5020729;28;20054;-59
2021/12/09 06:19:21;;;;;;;81.75;40.03;;;;;;;-0.88;97.96;99839.19;5019407;28;21053;-60
2021/12/09 06:21:49;;;;;;;86.22;40.85;;;;;;;-0.77;98.34;99842.38;5024837;28;20131;-61
2021/12/09 06:24:21;;;;;;;83.75;40.72;;;;;;;-0.89;97.47;99849.56;5028012;28;20127;-61
2021/12/09 06:26:48;;;;;;;81.15;39.85;;;;;;;-0.90;97.88;99838.41;5027317;28;20044;-60
2021/12/09 06:29:15;;;;;;;80.35;38.28;;;;;;;-0.90;97.30;99833.22;5001431;28;20425;-61
2021/12/09 06:31:42;;;;;;;88.45;40.30;;;;;;;-0.87;97.42;99838.31;5016805;28;20138;-59
2021/12/09 06:34:12;;;;;;;84.00;40.60;;;;;;;-0.82;97.43;99833.88;5016426;28;20053;-59
2021/12/09 06:36:40;;;;;;;79.78;38.92;;;;;;;-0.82;97.24;99820.09;5016004;28;20050;-59
2021/12/09 06:39:08;;;;;;;83.10;40.45;;;;;;;-0.84;97.43;99822.72;5019003;28;20061;-58
2021/12/09 06:41:35;;;;;;;81.03;39.97;;;;;;;-0.89;97.06;99827.16;5017615;28;20064;-59
2021/12/09 06:44:02;;;;;;;87.28;39.92;;;;;;;-0.94;97.27;99823.00;5018598;28;20050;-60
2021/12/09 06:46:29;;;;;;;86.15;42.75;;;;;;;-0.95;97.51;99816.97;5018546;28;20166;-61
2021/12/09 06:48:57;;;;;;;81.60;41.58;;;;;;;-1.00;97.50;99818.81;5004148;28;20053;-58
2021/12/09 06:51:25;;;;;;;87.57;42.05;;;;;;;-1.07;98.02;99818.13;4988831;28;20438;-58
2021/12/09 06:53:52;;;;;;;87.50;42.67;;;;;;;-1.11;99.20;99816.50;5001705;28;21215;-60
2021/12/09 06:56:19;;;;;;;86.93;43.15;;;;;;;-1.11;99.48;99826.84;5015298;28;20054;-58
2021/12/09 06:58:46;;;;;;;88.22;41.33;;;;;;;-1.05;100.00;99834.44;5004432;28;20115;-58
2021/12/09 07:01:14;;;;;;;89.35;41.70;;;;;;;-1.10;100.00;99827.69;4984876;28;21292;-55
2021/12/09 07:03:42;;;;;;;87.53;42.38;;;;;;;-1.13;100.00;99823.44;5012133;28;20060;-58
2021/12/09 07:06:11;;;;;;;83.13;42.67;;;;;;;-1.10;100.00;99831.13;5018203;28;20293;-60
2021/12/09 07:08:48;;;;;;;89.90;43.20;;;;;;;-1.12;100.00;99829.47;5010118;28;20092;-59
2021/12/09 07:11:18;;;;;;;88.32;46.60;;;;;;;-1.17;100.00;99837.34;5011479;28;20549;-60
2021/12/09 07:13:46;;;;;;;84.45;42.38;;;;;;;-1.21;100.00;99842.59;5017396;28;20096;-59
2021/12/09 07:16:14;;;;;;;91.72;43.88;;;;;;;-1.17;100.00;99844.19;5015029;28;20727;-59
2021/12/09 07:18:42;;;;;;;86.15;41.08;;;;;;;-1.11;100.00;99837.16;5018842;28;20057;-64
2021/12/09 07:21:09;;;;;;;89.38;42.30;;;;;;;-1.12;100.00;99827.72;5025036;28;20140;-60
2021/12/09 07:23:36;;;;;;;85.45;42.72;;;;;;;-1.13;100.00;99851.84;5026453;28;20136;-58
2021/12/09 07:26:04;;;;;;;83.82;42.20;;;;;;;-1.17;100.00;99851.94;5030208;28;20045;-58
2021/12/09 07:28:31;;;;;;;91.68;45.40;;;;;;;-1.20;100.00;99839.13;5031607;28;20059;-58
2021/12/09 07:30:58;;;;;;;94.00;43.83;;;;;;;-1.23;100.00;99842.63;5029650;28;20573;-60
2021/12/09 07:33:26;;;;;;;91.72;41.58;;;;;;;-1.31;100.00;99836.78;5034837;28;20053;-60
2021/12/09 07:35:53;;;;;;;91.43;43.80;;;;;;;-1.32;100.00;99840.25;5027013;28;20450;-60
2021/12/09 07:38:20;;;;;;;84.47;44.13;;;;;;;-1.28;100.00;99844.47;5022127;28;20060;-58
2021/12/09 07:40:47;;;;;;;91.97;44.03;;;;;;;-1.23;100.00;99855.53;5029231;28;20045;-59
2021/12/09 07:43:14;;;;;;;95.28;44.13;;;;;;;-1.14;100.00;99855.31;5026601;28;20132;-60
2021/12/09 07:45:42;;;;;;;93.82;44.08;;;;;;;-1.19;100.00;99854.56;5026435;28;20091;-60
2021/12/09 07:48:09;;;;;;;92.20;43.33;;;;;;;-1.13;100.00;99840.66;5017600;28;20077;-60
2021/12/09 07:50:36;;;;;;;97.28;44.35;;;;;;;-1.09;100.00;99837.13;5029281;28;20132;-60
2021/12/09 07:53:04;;;;;;;100.75;45.95;;;;;;;-1.11;100.00;99860.41;5023893;28;20140;-58
2021/12/09 07:55:31;;;;;;;88.97;41.85;;;;;;;-1.11;100.00;99873.34;5025077;28;20053;-60
2021/12/09 07:57:58;;;;;;;91.20;44.70;;;;;;;-1.12;100.00;99879.38;5028870;28;20063;-58
2021/12/09 08:00:30;;;;;;;96.32;45.35;;;;;;;-1.06;100.00;99884.41;5034312;28;20045;-59
2021/12/09 08:02:59;;;;;;;95.57;44.22;;;;;;;-0.99;100.00;99879.09;5014525;28;20045;-57
2021/12/09 08:05:29;;;;;;;87.30;44.35;;;;;;;-1.00;100.00;99883.41;5035249;28;20052;-56
2021/12/09 08:07:56;;;;;;;91.53;46.17;;;;;;;-0.98;100.00;99883.38;5027683;28;20132;-58
2021/12/09 08:10:23;;;;;;;91.28;44.60;;;;;;;-1.06;100.00;99884.41;5033944;28;20401;-59
2021/12/09 08:12:51;;;;;;;94.57;45.53;;;;;;;-0.98;100.00;99881.66;5030376;28;20064;-57
2021/12/09 08:15:29;;;;;;;94.47;46.72;;;;;;;-0.94;100.00;99900.50;5025887;28;20164;-58
2021/12/09 08:18:04;;;;;;;93.25;45.78;;;;;;;-0.95;100.00;99909.13;5027065;28;20049;-57
2021/12/09 08:20:32;;;;;;;98.90;46.65;;;;;;;-1.00;100.00;99892.88;5030241;28;20069;-58
2021/12/09 08:22:59;;;;;;;95.50;45.92;;;;;;;-1.00;100.00;99883.41;5032060;28;20079;-57
2021/12/09 08:25:26;;;;;;;91.78;43.50;;;;;;;-0.99;100.00;99876.50;5034209;28;20045;-59
2021/12/09 08:27:54;;;;;;;88.75;42.70;;;;;;;-1.07;100.00;99864.63;5040519;28;20535;-60
2021/12/09 08:30:24;;;;;;;95.43;46.03;;;;;;;-0.99;100.00;99858.41;5094275;22;20135;-64
2021/12/09 08:33:12;;;;;;;92.18;44.28;;;;;;;-0.96;100.00;99854.03;5091097;28;20380;-63
2021/12/09 08:35:39;;;;;;;92.82;46.33;;;;;;;-0.98;100.00;99848.06;5069499;28;20476;-63
2021/12/09 08:38:07;;;;;;;95.47;44.35;;;;;;;-1.00;100.00;99846.38;5054421;28;20492;-63
2021/12/09 08:40:35;;;;;;;95.95;46.25;;;;;;;-0.96;100.00;99855.75;5051100;28;20056;-64
2021/12/09 08:43:03;;;;;;;100.65;48.30;;;;;;;-0.99;100.00;99850.66;5050018;28;20520;-63
2021/12/09 08:45:30;;;;;;;95.38;47.00;;;;;;;-0.95;100.00;99850.56;5056866;28;20131;-64
2021/12/09 08:47:57;;;;;;;94.65;44.63;;;;;;;-0.81;100.00;99857.97;5052669;28;20040;-63
2021/12/09 08:50:25;;;;;;;98.90;46.17;;;;;;;-0.81;100.00;99864.00;5059147;28;20127;-63
2021/12/09 08:52:53;;;;;;;96.65;47.58;;;;;;;-0.79;100.00;99875.13;5050190;28;20055;-63
2021/12/09 08:55:22;;;;;;;97.97;48.67;;;;;;;-0.77;100.00;99875.09;5054329;28;20473;-64
2021/12/09 08:57:52;;;;;;;94.15;48.03;;;;;;;-0.76;100.00;99853.56;5052832;28;20090;-63
2021/12/09 09:00:19;;;;;;;95.13;47.83;;;;;;;-0.73;100.00;99858.63;5050602;28;20059;-64
2021/12/09 09:02:47;;;;;;;94.75;46.50;;;;;;;-0.67;100.00;99868.84;5072657;28;20101;-64
2021/12/09 09:05:15;;;;;;;88.03;44.97;;;;;;;-0.71;100.00;99850.84;5047448;28;20048;-64
2021/12/09 09:07:43;;;;;;;98.85;48.58;;;;;;;-0.73;100.00;99850.88;5061227;28;20603;-64
2021/12/09 09:10:13;;;;;;;92.63;46.08;;;;;;;-0.76;100.00;99838.06;5061928;28;20524;-64
2021/12/09 09:12:41;;;;;;;86.80;45.28;;;;;;;-0.67;100.00;99845.56;5070078;28;20113;-64
2021/12/09 09:15:12;;;;;;;88.95;44.97;;;;;;;-0.57;100.00;99846.19;5055529;28;20099;-64
2021/12/09 09:17:39;;;;;;;86.18;44.15;;;;;;;-0.59;100.00;99846.19;5069243;28;20040;-63
2021/12/09 09:20:08;;;;;;;86.13;42.70;;;;;;;-0.49;100.00;99864.94;5046123;28;20143;-64
2021/12/09 09:22:37;;;;;;;92.45;45.25;;;;;;;-0.38;100.00;99868.06;5064063;28;20132;-64
2021/12/09 09:25:06;;;;;;;94.40;47.47;;;;;;;-0.37;100.00;99866.31;5034076;28;20059;-64
2021/12/09 09:27:33;;;;;;;83.40;43.95;;;;;;;-0.41;100.00;99880.22;5062503;28;20063;-63
2021/12/09 09:30:02;;;;;;;84.70;43.85;;;;;;;-0.39;100.00;99873.28;5062025;28;20128;-64
2021/12/09 09:32:29;;;;;;;86.55;43.55;;;;;;;-0.40;100.00;99876.78;5065063;28;20524;-64
2021/12/09 09:34:56;;;;;;;88.90;44.83;;;;;;;-0.49;100.00;99883.03;5047602;28;20087;-64
2021/12/09 09:37:24;;;;;;;83.90;43.40;;;;;;;-0.36;99.93;99868.03;5053681;28;20076;-65
2021/12/09 09:39:51;;;;;;;85.53;45.20;;;;;;;-0.36;100.00;99870.59;5050085;28;20056;-65
2021/12/09 09:43:14;;;;;;;78.70;42.25;;;;;;;-0.32;99.85;99856.72;5067632;28;20051;-63
2021/12/09 09:45:09;;;;;;;88.60;45.45;;;;;;;-0.21;99.47;99854.69;5048206;28;20068;-65
2021/12/09 09:47:36;;;;;;;85.18;45.78;;;;;;;-0.27;99.44;99855.72;5067455;28;20143;-65
2021/12/09 09:50:06;;;;;;;85.65;45.80;;;;;;;-0.17;99.95;99848.56;5062513;28;20136;-65
2021/12/09 09:52:33;;;;;;;86.72;42.60;;;;;;;-0.13;99.54;99864.84;5068041;28;20048;-65
2021/12/09 09:55:07;;;;;;;91.82;45.53;;;;;;;-0.01;98.97;99854.97;5064610;28;20059;-65
2021/12/09 09:57:35;;;;;;;78.78;42.65;;;;;;;0.19;97.93;99838.06;5065754;28;20076;-64
2021/12/09 10:00:09;;;;;;;92.35;48.33;;;;;;;0.25;96.28;99853.41;5061754;28;20083;-61
2021/12/09 10:02:37;;;;;;;84.25;44.17;;;;;;;0.36;95.05;99847.91;5029430;28;20048;-64
2021/12/09 10:05:07;;;;;;;83.60;44.33;;;;;;;0.27;95.06;99848.16;5064614;28;20199;-64
2021/12/09 10:07:35;;;;;;;81.72;41.47;;;;;;;0.43;95.49;99855.44;5053629;28;20119;-64
2021/12/09 10:10:08;;;;;;;81.72;44.45;;;;;;;0.58;95.47;99845.50;5045408;28;20058;-64
2021/12/09 10:13:00;;;;;;;77.13;40.25;;;;;;;0.39;94.10;99846.06;5042883;28;20464;-65
2021/12/09 10:15:35;;;;;;;80.30;41.72;;;;;;;0.26;94.12;99847.31;5060398;28;20413;-63
2021/12/09 10:18:02;;;;;;;79.35;42.45;;;;;;;0.25;94.37;99848.22;5066747;28;20234;-64
2021/12/09 10:20:53;;;;;;;80.45;42.72;;;;;;;0.24;93.73;99852.56;5063679;28;20060;-64
2021/12/09 10:23:22;;;;;;;78.38;41.20;;;;;;;0.27;93.38;99849.03;5040938;28;21116;-65
2021/12/09 10:26:19;;;;;;;72.22;40.70;;;;;;;0.20;94.02;99852.69;5063122;28;20056;-65
2021/12/09 10:28:56;;;;;;;79.68;41.67;;;;;;;0.16;94.93;99857.09;5064945;28;20614;-65
2021/12/09 10:31:30;;;;;;;83.03;42.72;;;;;;;0.14;95.10;99858.06;5047849;28;20508;-64
2021/12/09 10:34:14;;;;;;;75.53;41.67;;;;;;;0.24;95.23;99865.50;5049458;28;20131;-65
2021/12/09 10:36:50;;;;;;;73.50;40.03;;;;;;;0.27;94.18;99866.28;5066929;28;20170;-65
2021/12/09 10:39:27;;;;;;;81.88;42.67;;;;;;;0.27;94.04;99877.50;5067736;28;20128;-65
2021/12/09 10:41:56;;;;;;;79.03;42.67;;;;;;;0.22;93.48;99861.25;5048905;28;20045;-64
2021/12/09 10:44:40;;;;;;;76.95;42.47;;;;;;;0.18;93.45;99869.97;5063854;28;20052;-65
2021/12/09 10:47:15;;;;;;;76.05;40.40;;;;;;;0.21;93.77;99869.91;5068948;28;20059;-65
2021/12/09 10:49:51;;;;;;;75.73;40.43;;;;;;;0.20;93.46;99871.66;5047453;28;20076;-65
2021/12/09 10:52:37;;;;;;;74.32;39.67;;;;;;;0.20;93.74;99868.22;5071355;28;20078;-64
2021/12/09 10:55:07;;;;;;;73.60;39.35;;;;;;;0.27;92.79;99866.28;5069857;28;20048;-64
2021/12/09 10:57:34;;;;;;;82.35;43.28;;;;;;;0.27;92.01;99854.22;5064009;28;20147;-64
2021/12/09 11:00:44;;;;;;;72.30;39.13;;;;;;;0.13;92.43;99852.00;5048550;28;20148;-62
2021/12/09 11:03:21;;;;;;;69.15;39.83;;;;;;;0.11;93.37;99845.19;5028045;28;20049;-65
2021/12/09 11:06:00;;;;;;;70.95;39.67;;;;;;;0.26;92.56;99829.19;5052393;28;20048;-65
2021/12/09 11:08:33;;;;;;;72.07;39.58;;;;;;;0.32;92.80;99817.84;5069454;28;20059;-65
2021/12/09 11:11:06;;;;;;;76.70;40.95;;;;;;;0.41;92.22;99814.97;5063695;28;20110;-65
2021/12/09 11:13:51;;;;;;;74.30;40.63;;;;;;;0.40;92.48;99818.44;5067728;28;20430;-64
2021/12/09 11:16:25;;;;;;;71.43;39.28;;;;;;;0.38;92.82;99812.47;5061477;28;20048;-63
2021/12/09 11:19:42;;;;;;;68.35;38.75;;;;;;;0.42;92.32;99822.69;5065289;28;20052;-64
2021/12/09 11:22:17;;;;;;;72.70;38.78;;;;;;;0.53;92.22;99824.94;5067486;28;20044;-65
2021/12/09 11:24:56;;;;;;;68.45;38.25;;;;;;;0.56;91.30;99817.06;5047123;28;20372;-65
2021/12/09 11:27:25;;;;;;;66.65;39.08;;;;;;;0.69;90.70;99808.03;5068550;28;20045;-64